sensor_id;sensor_type;location;lat;lon;timestamp;temperature;humidity
20528;DHT22;23612;50.894;10.700;2023-04-15T00:01:05;5.00;99.90
20528;DHT22;23612;50.894;10.700;2023-04-15T00:03:30;4.90;99.90
20528;DHT22;23612;50.894;10.700;2023-04-15T00:05:57;4.90;99.90
20528;DHT22;23612;50.894;10.700;2023-04-15T00:08:22;4.90;99.90
20528;DHT22;23612;50.894;10.700;2023-04-15T00:10:48;4.90;99.90
20528;DHT22;23612;50.894;10.700;2023-04-15T00:13:14;4.90;99.90
20528;DHT22;23612;50.894;10.700;2023-04-15T00:15:40;4.90;99.90
20528;DHT22;23612;50.894;10.700;2023-04-15T00:18:05;4.90;99.90
20528;DHT22;23612;50.894;10.700;2023-04-15T00:20:33;4.90;99.90
20528;DHT22;23612;50.894;10.700;2023-04-15T00:22:58;4.90;99.90
20528;DHT22;23612;50.894;10.700;2023-04-15T00:25:25;4.90;99.90
20528;DHT22;23612;50.894;10.700;2023-04-15T00:27:50;4.90;99.90
20528;DHT22;23612;50.894;10.700;2023-04-15T00:30:16;4.90;99.90
20528;DHT22;23612;50.894;10.700;2023-04-15T00:32:41;4.90;99.90
20528;DHT22;23612;50.894;10.700;2023-04-15T00:35:07;4.90;99.90
20528;DHT22;23612;50.894;10.700;2023-04-15T00:37:33;4.90;99.90
20528;DHT22;23612;50.894;10.700;2023-04-15T00:39:59;4.90;99.90
20528;DHT22;23612;50.894;10.700;2023-04-15T00:42:25;4.90;99.90
20528;DHT22;23612;50.894;10.700;2023-04-15T00:44:52;4.90;99.90
20528;DHT22;23612;50.894;10.700;2023-04-15T00:47:17;4.90;99.90
20528;DHT22;23612;50.894;10.700;2023-04-15T00:49:44;4.90;99.90
20528;DHT22;23612;50.894;10.700;2023-04-15T00:52:10;4.90;99.90
20528;DHT22;23612;50.894;10.700;2023-04-15T00:54:35;4.90;99.90
20528;DHT22;23612;50.894;10.700;2023-04-15T00:57:04;4.90;99.90
20528;DHT22;23612;50.894;10.700;2023-04-15T00:59:32;4.90;99.90
20528;DHT22;23612;50.894;10.700;2023-04-15T01:01:58;4.90;99.90
20528;DHT22;23612;50.894;10.700;2023-04-15T01:04:24;4.90;99.90
20528;DHT22;23612;50.894;10.700;2023-04-15T01:06:49;4.90;99.90
20528;DHT22;23612;50.894;10.700;2023-04-15T01:09:15;4.90;99.90
20528;DHT22;23612;50.894;10.700;2023-04-15T01:11:41;5.00;99.90
20528;DHT22;23612;50.894;10.700;2023-04-15T01:14:08;5.00;99.90
20528;DHT22;23612;50.894;10.700;2023-04-15T01:16:34;5.10;99.90
20528;DHT22;23612;50.894;10.700;2023-04-15T01:19:01;5.10;99.90
20528;DHT22;23612;50.894;10.700;2023-04-15T01:21:26;5.10;99.90
20528;DHT22;23612;50.894;10.700;2023-04-15T01:23:52;5.20;99.90
20528;DHT22;23612;50.894;10.700;2023-04-15T01:26:20;5.20;99.90
20528;DHT22;23612;50.894;10.700;2023-04-15T01:28:46;5.20;99.90
20528;DHT22;23612;50.894;10.700;2023-04-15T01:31:13;5.20;99.90
20528;DHT22;23612;50.894;10.700;2023-04-15T01:33:40;5.20;99.90
20528;DHT22;23612;50.894;10.700;2023-04-15T01:36:07;5.30;99.90
20528;DHT22;23612;50.894;10.700;2023-04-15T01:38:36;5.20;99.90
20528;DHT22;23612;50.894;10.700;2023-04-15T01:41:02;5.20;99.90
20528;DHT22;23612;50.894;10.700;2023-04-15T01:43:29;5.20;99.90
20528;DHT22;23612;50.894;10.700;2023-04-15T01:45:55;5.20;99.90
20528;DHT22;23612;50.894;10.700;2023-04-15T01:48:21;5.20;99.90
20528;DHT22;23612;50.894;10.700;2023-04-15T01:50:46;5.20;99.90
20528;DHT22;23612;50.894;10.700;2023-04-15T01:53:12;5.30;99.90
20528;DHT22;23612;50.894;10.700;2023-04-15T01:55:37;5.20;99.90
20528;DHT22;23612;50.894;10.700;2023-04-15T01:58:03;5.20;99.90
20528;DHT22;23612;50.894;10.700;2023-04-15T02:00:29;5.20;99.90
20528;DHT22;23612;50.894;10.700;2023-04-15T02:02:56;5.20;99.90
20528;DHT22;23612;50.894;10.700;2023-04-15T02:05:22;5.20;99.90
20528;DHT22;23612;50.894;10.700;2023-04-15T02:07:47;5.10;99.90
20528;DHT22;23612;50.894;10.700;2023-04-15T02:10:13;5.10;99.90
20528;DHT22;23612;50.894;10.700;2023-04-15T02:12:40;5.20;99.90
20528;DHT22;23612;50.894;10.700;2023-04-15T02:15:06;5.10;99.90
20528;DHT22;23612;50.894;10.700;2023-04-15T02:17:35;5.10;99.90
20528;DHT22;23612;50.894;10.700;2023-04-15T02:20:02;5.20;99.90
20528;DHT22;23612;50.894;10.700;2023-04-15T02:22:30;5.20;99.90
20528;DHT22;23612;50.894;10.700;2023-04-15T02:24:55;5.20;99.90
20528;DHT22;23612;50.894;10.700;2023-04-15T02:27:21;5.10;99.90
20528;DHT22;23612;50.894;10.700;2023-04-15T02:29:46;5.10;99.90
20528;DHT22;23612;50.894;10.700;2023-04-15T02:32:12;5.10;99.90
20528;DHT22;23612;50.894;10.700;2023-04-15T02:34:39;5.20;99.90
20528;DHT22;23612;50.894;10.700;2023-04-15T02:37:06;5.20;99.90
20528;DHT22;23612;50.894;10.700;2023-04-15T02:39:32;5.10;99.90
20528;DHT22;23612;50.894;10.700;2023-04-15T02:41:57;5.00;99.90
20528;DHT22;23612;50.894;10.700;2023-04-15T02:44:24;5.00;99.90
20528;DHT22;23612;50.894;10.700;2023-04-15T02:46:50;5.10;99.90
20528;DHT22;23612;50.894;10.700;2023-04-15T02:49:17;5.10;99.90
20528;DHT22;23612;50.894;10.700;2023-04-15T02:51:43;5.10;99.90
20528;DHT22;23612;50.894;10.700;2023-04-15T02:54:17;5.10;99.90
20528;DHT22;23612;50.894;10.700;2023-04-15T02:56:42;5.10;99.90
20528;DHT22;23612;50.894;10.700;2023-04-15T02:59:08;5.10;99.90
20528;DHT22;23612;50.894;10.700;2023-04-15T03:01:33;5.10;99.90
20528;DHT22;23612;50.894;10.700;2023-04-15T03:03:59;5.00;99.90
20528;DHT22;23612;50.894;10.700;2023-04-15T03:06:25;5.00;99.90
20528;DHT22;23612;50.894;10.700;2023-04-15T03:08:50;4.90;99.90
20528;DHT22;23612;50.894;10.700;2023-04-15T03:11:16;4.90;99.90
20528;DHT22;23612;50.894;10.700;2023-04-15T03:13:42;4.90;99.90
20528;DHT22;23612;50.894;10.700;2023-04-15T03:16:08;4.90;99.90
20528;DHT22;23612;50.894;10.700;2023-04-15T03:18:34;4.90;99.90
20528;DHT22;23612;50.894;10.700;2023-04-15T03:20:59;5.00;99.90
20528;DHT22;23612;50.894;10.700;2023-04-15T03:23:25;4.90;99.90
20528;DHT22;23612;50.894;10.700;2023-04-15T03:25:51;4.80;99.90
20528;DHT22;23612;50.894;10.700;2023-04-15T03:28:16;4.90;99.90
20528;DHT22;23612;50.894;10.700;2023-04-15T03:30:42;4.90;99.90
20528;DHT22;23612;50.894;10.700;2023-04-15T03:33:07;4.90;99.90
20528;DHT22;23612;50.894;10.700;2023-04-15T03:35:33;5.00;99.90
20528;DHT22;23612;50.894;10.700;2023-04-15T03:37:59;5.00;99.90
20528;DHT22;23612;50.894;10.700;2023-04-15T03:40:24;5.10;99.90
20528;DHT22;23612;50.894;10.700;2023-04-15T03:42:50;5.00;99.90
20528;DHT22;23612;50.894;10.700;2023-04-15T03:45:16;5.00;99.90
20528;DHT22;23612;50.894;10.700;2023-04-15T03:47:41;5.00;99.90
20528;DHT22;23612;50.894;10.700;2023-04-15T03:50:07;5.00;99.90
20528;DHT22;23612;50.894;10.700;2023-04-15T03:52:32;5.00;99.90
20528;DHT22;23612;50.894;10.700;2023-04-15T03:54:58;5.00;99.90
20528;DHT22;23612;50.894;10.700;2023-04-15T03:57:23;5.00;99.90
20528;DHT22;23612;50.894;10.700;2023-04-15T03:59:49;5.10;99.90
20528;DHT22;23612;50.894;10.700;2023-04-15T04:02:15;5.00;99.90
20528;DHT22;23612;50.894;10.700;2023-04-15T04:04:41;5.00;99.90
20528;DHT22;23612;50.894;10.700;2023-04-15T04:07:08;5.00;99.90
20528;DHT22;23612;50.894;10.700;2023-04-15T04:09:33;5.00;99.90
20528;DHT22;23612;50.894;10.700;2023-04-15T04:11:59;5.00;99.90
20528;DHT22;23612;50.894;10.700;2023-04-15T04:14:25;5.00;99.90
20528;DHT22;23612;50.894;10.700;2023-04-15T04:16:54;4.90;99.90
20528;DHT22;23612;50.894;10.700;2023-04-15T04:19:19;4.90;99.90
20528;DHT22;23612;50.894;10.700;2023-04-15T04:21:45;4.80;99.90
20528;DHT22;23612;50.894;10.700;2023-04-15T04:24:11;4.80;99.90
20528;DHT22;23612;50.894;10.700;2023-04-15T04:26:36;4.80;99.90
20528;DHT22;23612;50.894;10.700;2023-04-15T04:29:02;4.80;99.90
20528;DHT22;23612;50.894;10.700;2023-04-15T04:31:27;4.80;99.90
20528;DHT22;23612;50.894;10.700;2023-04-15T04:33:53;4.80;99.90
20528;DHT22;23612;50.894;10.700;2023-04-15T04:36:18;4.90;99.90
20528;DHT22;23612;50.894;10.700;2023-04-15T04:38:44;5.00;99.90
20528;DHT22;23612;50.894;10.700;2023-04-15T04:41:09;5.00;99.90
20528;DHT22;23612;50.894;10.700;2023-04-15T04:43:35;5.00;99.90
20528;DHT22;23612;50.894;10.700;2023-04-15T04:46:00;5.10;99.90
20528;DHT22;23612;50.894;10.700;2023-04-15T04:48:26;5.10;99.90
20528;DHT22;23612;50.894;10.700;2023-04-15T04:50:52;5.10;99.90
20528;DHT22;23612;50.894;10.700;2023-04-15T04:53:17;5.20;99.90
20528;DHT22;23612;50.894;10.700;2023-04-15T04:55:43;5.10;99.90
20528;DHT22;23612;50.894;10.700;2023-04-15T04:58:08;5.10;99.90
20528;DHT22;23612;50.894;10.700;2023-04-15T05:00:34;5.10;99.90
20528;DHT22;23612;50.894;10.700;2023-04-15T05:02:59;5.20;99.90
20528;DHT22;23612;50.894;10.700;2023-04-15T05:05:25;5.10;99.90
20528;DHT22;23612;50.894;10.700;2023-04-15T05:07:51;5.20;99.90
20528;DHT22;23612;50.894;10.700;2023-04-15T05:10:16;5.30;99.90
20528;DHT22;23612;50.894;10.700;2023-04-15T05:12:42;5.20;99.90
20528;DHT22;23612;50.894;10.700;2023-04-15T05:15:08;5.30;99.90
20528;DHT22;23612;50.894;10.700;2023-04-15T05:17:34;5.20;99.90
20528;DHT22;23612;50.894;10.700;2023-04-15T05:20:00;5.20;99.90
20528;DHT22;23612;50.894;10.700;2023-04-15T05:22:26;5.20;99.90
20528;DHT22;23612;50.894;10.700;2023-04-15T05:24:52;5.30;99.90
20528;DHT22;23612;50.894;10.700;2023-04-15T05:27:17;5.30;99.90
20528;DHT22;23612;50.894;10.700;2023-04-15T05:29:43;5.30;99.90
20528;DHT22;23612;50.894;10.700;2023-04-15T05:32:09;5.30;99.90
20528;DHT22;23612;50.894;10.700;2023-04-15T05:34:35;5.30;99.90
20528;DHT22;23612;50.894;10.700;2023-04-15T05:37:00;5.40;99.90
20528;DHT22;23612;50.894;10.700;2023-04-15T05:39:26;5.40;99.90
20528;DHT22;23612;50.894;10.700;2023-04-15T05:41:52;5.30;99.90
20528;DHT22;23612;50.894;10.700;2023-04-15T05:44:17;5.40;99.90
20528;DHT22;23612;50.894;10.700;2023-04-15T05:46:43;5.50;99.90
20528;DHT22;23612;50.894;10.700;2023-04-15T05:49:08;5.50;99.90
20528;DHT22;23612;50.894;10.700;2023-04-15T05:51:34;5.50;99.90
20528;DHT22;23612;50.894;10.700;2023-04-15T05:54:00;5.40;99.90
20528;DHT22;23612;50.894;10.700;2023-04-15T05:56:25;5.30;99.90
20528;DHT22;23612;50.894;10.700;2023-04-15T05:58:51;5.30;99.90
20528;DHT22;23612;50.894;10.700;2023-04-15T06:01:17;5.30;99.90
20528;DHT22;23612;50.894;10.700;2023-04-15T06:03:42;5.30;99.90
20528;DHT22;23612;50.894;10.700;2023-04-15T06:06:08;5.50;99.90
20528;DHT22;23612;50.894;10.700;2023-04-15T06:08:34;5.40;99.90
20528;DHT22;23612;50.894;10.700;2023-04-15T06:10:59;5.40;99.90
20528;DHT22;23612;50.894;10.700;2023-04-15T06:13:25;5.50;99.90
20528;DHT22;23612;50.894;10.700;2023-04-15T06:15:51;5.40;99.90
20528;DHT22;23612;50.894;10.700;2023-04-15T06:18:17;5.40;99.90
20528;DHT22;23612;50.894;10.700;2023-04-15T06:20:44;5.40;99.90
20528;DHT22;23612;50.894;10.700;2023-04-15T06:23:09;5.40;99.90
20528;DHT22;23612;50.894;10.700;2023-04-15T06:25:35;5.40;99.90
20528;DHT22;23612;50.894;10.700;2023-04-15T06:28:01;5.50;99.90
20528;DHT22;23612;50.894;10.700;2023-04-15T06:30:26;5.50;99.90
20528;DHT22;23612;50.894;10.700;2023-04-15T06:32:51;5.60;99.90
20528;DHT22;23612;50.894;10.700;2023-04-15T06:35:17;5.50;99.90
20528;DHT22;23612;50.894;10.700;2023-04-15T06:37:43;5.50;99.90
20528;DHT22;23612;50.894;10.700;2023-04-15T06:40:09;5.50;99.90
20528;DHT22;23612;50.894;10.700;2023-04-15T06:42:34;5.50;99.90
20528;DHT22;23612;50.894;10.700;2023-04-15T06:45:01;5.40;99.90
20528;DHT22;23612;50.894;10.700;2023-04-15T06:47:26;5.50;99.90
20528;DHT22;23612;50.894;10.700;2023-04-15T06:49:52;5.40;99.90
20528;DHT22;23612;50.894;10.700;2023-04-15T06:52:17;5.50;99.90
20528;DHT22;23612;50.894;10.700;2023-04-15T06:54:43;5.60;99.90
20528;DHT22;23612;50.894;10.700;2023-04-15T06:57:09;5.50;99.90
20528;DHT22;23612;50.894;10.700;2023-04-15T06:59:34;5.50;99.90
20528;DHT22;23612;50.894;10.700;2023-04-15T07:02:00;5.50;99.90
20528;DHT22;23612;50.894;10.700;2023-04-15T07:04:26;5.40;99.90
20528;DHT22;23612;50.894;10.700;2023-04-15T07:06:52;5.50;99.90
20528;DHT22;23612;50.894;10.700;2023-04-15T07:09:18;5.50;99.90
20528;DHT22;23612;50.894;10.700;2023-04-15T07:11:44;5.50;99.90
20528;DHT22;23612;50.894;10.700;2023-04-15T07:14:09;5.50;99.90
20528;DHT22;23612;50.894;10.700;2023-04-15T07:16:35;5.50;99.90
20528;DHT22;23612;50.894;10.700;2023-04-15T07:19:01;5.50;99.90
20528;DHT22;23612;50.894;10.700;2023-04-15T07:21:26;5.50;99.90
20528;DHT22;23612;50.894;10.700;2023-04-15T07:23:52;5.60;99.90
20528;DHT22;23612;50.894;10.700;2023-04-15T07:26:17;5.60;99.90
20528;DHT22;23612;50.894;10.700;2023-04-15T07:28:43;5.60;99.90
20528;DHT22;23612;50.894;10.700;2023-04-15T07:31:10;5.60;99.90
20528;DHT22;23612;50.894;10.700;2023-04-15T07:33:36;5.60;99.90
20528;DHT22;23612;50.894;10.700;2023-04-15T07:36:01;5.60;99.90
20528;DHT22;23612;50.894;10.700;2023-04-15T07:38:27;5.60;99.90
20528;DHT22;23612;50.894;10.700;2023-04-15T07:40:53;5.70;99.90
20528;DHT22;23612;50.894;10.700;2023-04-15T07:43:18;5.70;99.90
20528;DHT22;23612;50.894;10.700;2023-04-15T07:45:45;5.70;99.90
20528;DHT22;23612;50.894;10.700;2023-04-15T07:48:11;5.70;99.90
20528;DHT22;23612;50.894;10.700;2023-04-15T07:50:36;5.70;99.90
20528;DHT22;23612;50.894;10.700;2023-04-15T07:53:02;5.70;99.90
20528;DHT22;23612;50.894;10.700;2023-04-15T07:55:27;5.80;99.90
20528;DHT22;23612;50.894;10.700;2023-04-15T07:57:54;5.90;99.90
20528;DHT22;23612;50.894;10.700;2023-04-15T08:00:20;5.90;99.90
20528;DHT22;23612;50.894;10.700;2023-04-15T08:02:46;5.90;99.90
20528;DHT22;23612;50.894;10.700;2023-04-15T08:05:13;5.90;99.90
20528;DHT22;23612;50.894;10.700;2023-04-15T08:07:39;5.90;99.90
20528;DHT22;23612;50.894;10.700;2023-04-15T08:10:05;6.00;99.90
20528;DHT22;23612;50.894;10.700;2023-04-15T08:12:30;6.00;99.90
20528;DHT22;23612;50.894;10.700;2023-04-15T08:14:56;6.00;99.90
20528;DHT22;23612;50.894;10.700;2023-04-15T08:17:22;6.00;99.90
20528;DHT22;23612;50.894;10.700;2023-04-15T08:19:48;5.90;99.90
20528;DHT22;23612;50.894;10.700;2023-04-15T08:22:13;6.00;99.90
20528;DHT22;23612;50.894;10.700;2023-04-15T08:24:39;5.90;99.90
20528;DHT22;23612;50.894;10.700;2023-04-15T08:27:04;5.90;99.90
20528;DHT22;23612;50.894;10.700;2023-04-15T08:29:31;5.90;99.90
20528;DHT22;23612;50.894;10.700;2023-04-15T08:31:58;5.80;99.90
20528;DHT22;23612;50.894;10.700;2023-04-15T08:34:24;5.90;99.90
20528;DHT22;23612;50.894;10.700;2023-04-15T08:36:50;6.00;99.90
20528;DHT22;23612;50.894;10.700;2023-04-15T08:39:16;5.90;99.90
20528;DHT22;23612;50.894;10.700;2023-04-15T08:41:47;5.90;99.90
20528;DHT22;23612;50.894;10.700;2023-04-15T08:44:14;5.90;99.90
20528;DHT22;23612;50.894;10.700;2023-04-15T08:46:40;5.90;99.90
20528;DHT22;23612;50.894;10.700;2023-04-15T08:49:10;6.10;99.90
20528;DHT22;23612;50.894;10.700;2023-04-15T08:51:38;6.10;99.90
20528;DHT22;23612;50.894;10.700;2023-04-15T08:54:04;6.20;99.90
20528;DHT22;23612;50.894;10.700;2023-04-15T08:56:30;6.20;99.90
20528;DHT22;23612;50.894;10.700;2023-04-15T08:58:58;6.20;99.90
20528;DHT22;23612;50.894;10.700;2023-04-15T09:01:24;6.20;99.90
20528;DHT22;23612;50.894;10.700;2023-04-15T09:03:51;6.30;99.90
20528;DHT22;23612;50.894;10.700;2023-04-15T09:06:20;6.30;99.90
20528;DHT22;23612;50.894;10.700;2023-04-15T09:08:46;6.30;99.90
20528;DHT22;23612;50.894;10.700;2023-04-15T09:11:12;6.30;99.90
20528;DHT22;23612;50.894;10.700;2023-04-15T09:13:38;6.30;99.90
20528;DHT22;23612;50.894;10.700;2023-04-15T09:16:04;6.40;99.90
20528;DHT22;23612;50.894;10.700;2023-04-15T09:18:32;6.40;99.90
20528;DHT22;23612;50.894;10.700;2023-04-15T09:21:09;6.30;99.90
20528;DHT22;23612;50.894;10.700;2023-04-15T09:23:39;6.30;99.90
20528;DHT22;23612;50.894;10.700;2023-04-15T09:26:06;6.30;99.90
20528;DHT22;23612;50.894;10.700;2023-04-15T09:28:32;6.40;99.90
20528;DHT22;23612;50.894;10.700;2023-04-15T09:30:58;6.40;99.90
20528;DHT22;23612;50.894;10.700;2023-04-15T09:33:24;6.30;99.90
20528;DHT22;23612;50.894;10.700;2023-04-15T09:35:57;6.30;99.90
20528;DHT22;23612;50.894;10.700;2023-04-15T09:38:23;6.30;99.90
20528;DHT22;23612;50.894;10.700;2023-04-15T09:40:49;6.30;99.90
20528;DHT22;23612;50.894;10.700;2023-04-15T09:43:15;6.40;99.90
20528;DHT22;23612;50.894;10.700;2023-04-15T09:45:50;6.40;99.90
20528;DHT22;23612;50.894;10.700;2023-04-15T09:48:18;6.50;99.90
20528;DHT22;23612;50.894;10.700;2023-04-15T09:50:48;6.50;99.90
20528;DHT22;23612;50.894;10.700;2023-04-15T09:53:19;6.50;99.90
20528;DHT22;23612;50.894;10.700;2023-04-15T09:55:48;6.50;99.90
20528;DHT22;23612;50.894;10.700;2023-04-15T09:58:18;6.40;99.90
20528;DHT22;23612;50.894;10.700;2023-04-15T10:00:46;6.40;99.90
20528;DHT22;23612;50.894;10.700;2023-04-15T10:03:21;6.40;99.90
20528;DHT22;23612;50.894;10.700;2023-04-15T10:05:52;6.40;99.90
20528;DHT22;23612;50.894;10.700;2023-04-15T10:08:23;6.30;99.90
20528;DHT22;23612;50.894;10.700;2023-04-15T10:10:50;6.40;99.90
20528;DHT22;23612;50.894;10.700;2023-04-15T10:13:21;6.40;99.90
20528;DHT22;23612;50.894;10.700;2023-04-15T10:15:59;6.40;99.90
20528;DHT22;23612;50.894;10.700;2023-04-15T10:18:26;6.50;99.90
20528;DHT22;23612;50.894;10.700;2023-04-15T10:20:52;6.50;99.90
20528;DHT22;23612;50.894;10.700;2023-04-15T10:23:19;6.50;99.90
20528;DHT22;23612;50.894;10.700;2023-04-15T10:25:46;6.50;99.90
20528;DHT22;23612;50.894;10.700;2023-04-15T10:28:14;6.60;99.90
20528;DHT22;23612;50.894;10.700;2023-04-15T10:30:40;6.60;99.90
20528;DHT22;23612;50.894;10.700;2023-04-15T10:33:07;6.70;99.90
20528;DHT22;23612;50.894;10.700;2023-04-15T10:35:34;6.70;99.90
20528;DHT22;23612;50.894;10.700;2023-04-15T10:38:00;6.80;99.90
20528;DHT22;23612;50.894;10.700;2023-04-15T10:40:28;6.80;99.90
20528;DHT22;23612;50.894;10.700;2023-04-15T10:42:59;6.80;99.90
20528;DHT22;23612;50.894;10.700;2023-04-15T10:45:27;6.70;99.90
20528;DHT22;23612;50.894;10.700;2023-04-15T10:47:57;6.70;99.90
20528;DHT22;23612;50.894;10.700;2023-04-15T10:50:26;6.80;99.90
20528;DHT22;23612;50.894;10.700;2023-04-15T10:52:55;6.80;99.90
20528;DHT22;23612;50.894;10.700;2023-04-15T10:55:31;6.90;99.90
20528;DHT22;23612;50.894;10.700;2023-04-15T10:58:00;6.80;99.90
20528;DHT22;23612;50.894;10.700;2023-04-15T11:00:31;6.80;99.90
20528;DHT22;23612;50.894;10.700;2023-04-15T11:03:05;6.80;99.90
20528;DHT22;23612;50.894;10.700;2023-04-15T11:08:07;6.80;99.90
20528;DHT22;23612;50.894;10.700;2023-04-15T11:13:02;6.80;99.90
20528;DHT22;23612;50.894;10.700;2023-04-15T11:15:36;6.80;99.90
20528;DHT22;23612;50.894;10.700;2023-04-15T11:18:21;6.80;99.90
20528;DHT22;23612;50.894;10.700;2023-04-15T11:20:49;6.80;99.90
20528;DHT22;23612;50.894;10.700;2023-04-15T11:23:26;6.80;99.90
20528;DHT22;23612;50.894;10.700;2023-04-15T11:25:54;6.80;99.90
20528;DHT22;23612;50.894;10.700;2023-04-15T11:28:20;6.70;99.90
20528;DHT22;23612;50.894;10.700;2023-04-15T11:30:45;6.80;99.90
20528;DHT22;23612;50.894;10.700;2023-04-15T11:33:11;6.80;99.90
20528;DHT22;23612;50.894;10.700;2023-04-15T11:35:37;6.80;99.90
20528;DHT22;23612;50.894;10.700;2023-04-15T11:38:04;6.80;99.90
20528;DHT22;23612;50.894;10.700;2023-04-15T11:40:30;6.90;99.90
20528;DHT22;23612;50.894;10.700;2023-04-15T11:43:14;6.80;99.90
20528;DHT22;23612;50.894;10.700;2023-04-15T11:45:49;6.90;99.90
20528;DHT22;23612;50.894;10.700;2023-04-15T11:48:16;6.90;99.90
20528;DHT22;23612;50.894;10.700;2023-04-15T11:50:41;6.90;99.90
20528;DHT22;23612;50.894;10.700;2023-04-15T11:53:09;6.90;99.90
20528;DHT22;23612;50.894;10.700;2023-04-15T11:58:16;7.00;99.90
20528;DHT22;23612;50.894;10.700;2023-04-15T12:03:16;7.10;99.90
20528;DHT22;23612;50.894;10.700;2023-04-15T12:16:27;7.10;99.90
20528;DHT22;23612;50.894;10.700;2023-04-15T12:18:54;7.20;99.90
20528;DHT22;23612;50.894;10.700;2023-04-15T12:21:21;7.20;99.90
20528;DHT22;23612;50.894;10.700;2023-04-15T12:23:52;7.20;99.90
20528;DHT22;23612;50.894;10.700;2023-04-15T12:26:25;7.20;99.90
20528;DHT22;23612;50.894;10.700;2023-04-15T12:28:55;7.20;99.90
20528;DHT22;23612;50.894;10.700;2023-04-15T12:31:21;7.20;99.90
20528;DHT22;23612;50.894;10.700;2023-04-15T12:33:48;7.20;99.90
20528;DHT22;23612;50.894;10.700;2023-04-15T12:36:14;7.30;99.90
20528;DHT22;23612;50.894;10.700;2023-04-15T12:38:39;7.30;99.90
20528;DHT22;23612;50.894;10.700;2023-04-15T12:41:05;7.30;99.90
20528;DHT22;23612;50.894;10.700;2023-04-15T12:43:31;7.30;99.90
20528;DHT22;23612;50.894;10.700;2023-04-15T12:45:56;7.20;99.90
20528;DHT22;23612;50.894;10.700;2023-04-15T12:48:22;7.20;99.90
20528;DHT22;23612;50.894;10.700;2023-04-15T12:50:47;7.10;99.90
20528;DHT22;23612;50.894;10.700;2023-04-15T12:53:13;7.20;99.90
20528;DHT22;23612;50.894;10.700;2023-04-15T12:55:38;7.20;99.90
20528;DHT22;23612;50.894;10.700;2023-04-15T12:58:04;7.20;99.90
20528;DHT22;23612;50.894;10.700;2023-04-15T13:00:29;7.20;99.90
20528;DHT22;23612;50.894;10.700;2023-04-15T13:02:57;7.20;99.90
20528;DHT22;23612;50.894;10.700;2023-04-15T13:05:23;7.30;99.90
20528;DHT22;23612;50.894;10.700;2023-04-15T13:07:48;7.30;99.90
20528;DHT22;23612;50.894;10.700;2023-04-15T13:10:14;7.20;99.90
20528;DHT22;23612;50.894;10.700;2023-04-15T13:12:40;7.20;99.90
20528;DHT22;23612;50.894;10.700;2023-04-15T13:15:06;7.30;99.90
20528;DHT22;23612;50.894;10.700;2023-04-15T13:17:33;7.30;99.90
20528;DHT22;23612;50.894;10.700;2023-04-15T13:19:59;7.30;99.90
20528;DHT22;23612;50.894;10.700;2023-04-15T13:22:24;7.40;99.90
20528;DHT22;23612;50.894;10.700;2023-04-15T13:24:50;7.50;99.90
20528;DHT22;23612;50.894;10.700;2023-04-15T13:27:16;7.60;99.90
20528;DHT22;23612;50.894;10.700;2023-04-15T13:29:41;7.60;99.90
20528;DHT22;23612;50.894;10.700;2023-04-15T13:32:07;7.60;99.90
20528;DHT22;23612;50.894;10.700;2023-04-15T13:34:32;7.60;99.90
20528;DHT22;23612;50.894;10.700;2023-04-15T13:36:58;7.70;99.90
20528;DHT22;23612;50.894;10.700;2023-04-15T13:39:23;7.60;99.90
20528;DHT22;23612;50.894;10.700;2023-04-15T13:41:49;7.70;99.90
20528;DHT22;23612;50.894;10.700;2023-04-15T13:44:14;7.70;99.90
20528;DHT22;23612;50.894;10.700;2023-04-15T13:46:40;7.70;99.90
20528;DHT22;23612;50.894;10.700;2023-04-15T13:49:08;7.70;99.90
20528;DHT22;23612;50.894;10.700;2023-04-15T13:51:34;7.60;99.90
20528;DHT22;23612;50.894;10.700;2023-04-15T13:54:01;7.60;99.90
20528;DHT22;23612;50.894;10.700;2023-04-15T13:56:26;7.60;99.90
20528;DHT22;23612;50.894;10.700;2023-04-15T13:58:52;7.50;99.90
20528;DHT22;23612;50.894;10.700;2023-04-15T14:01:19;7.60;99.90
20528;DHT22;23612;50.894;10.700;2023-04-15T14:03:44;7.60;99.90
20528;DHT22;23612;50.894;10.700;2023-04-15T14:06:10;7.60;99.90
20528;DHT22;23612;50.894;10.700;2023-04-15T14:08:35;7.60;99.90
20528;DHT22;23612;50.894;10.700;2023-04-15T14:11:01;7.50;99.90
20528;DHT22;23612;50.894;10.700;2023-04-15T14:13:26;7.60;99.90
20528;DHT22;23612;50.894;10.700;2023-04-15T14:15:52;7.50;99.90
20528;DHT22;23612;50.894;10.700;2023-04-15T14:18:17;7.60;99.90
20528;DHT22;23612;50.894;10.700;2023-04-15T14:20:42;7.60;99.90
20528;DHT22;23612;50.894;10.700;2023-04-15T14:23:08;7.60;99.90
20528;DHT22;23612;50.894;10.700;2023-04-15T14:25:33;7.50;99.90
20528;DHT22;23612;50.894;10.700;2023-04-15T14:27:59;7.50;99.90
20528;DHT22;23612;50.894;10.700;2023-04-15T14:30:24;7.50;99.90
20528;DHT22;23612;50.894;10.700;2023-04-15T14:32:50;7.50;99.90
20528;DHT22;23612;50.894;10.700;2023-04-15T14:35:16;7.50;99.90
20528;DHT22;23612;50.894;10.700;2023-04-15T14:37:41;7.50;99.90
20528;DHT22;23612;50.894;10.700;2023-04-15T14:40:07;7.50;99.90
20528;DHT22;23612;50.894;10.700;2023-04-15T14:42:33;7.40;99.90
20528;DHT22;23612;50.894;10.700;2023-04-15T14:44:58;7.40;99.90
20528;DHT22;23612;50.894;10.700;2023-04-15T14:47:24;7.40;99.90
20528;DHT22;23612;50.894;10.700;2023-04-15T14:49:50;7.40;99.90
20528;DHT22;23612;50.894;10.700;2023-04-15T14:52:15;7.40;99.90
20528;DHT22;23612;50.894;10.700;2023-04-15T14:54:41;7.40;99.90
20528;DHT22;23612;50.894;10.700;2023-04-15T14:57:06;7.40;99.90
20528;DHT22;23612;50.894;10.700;2023-04-15T14:59:33;7.40;99.90
20528;DHT22;23612;50.894;10.700;2023-04-15T15:01:58;7.40;99.90
20528;DHT22;23612;50.894;10.700;2023-04-15T15:04:24;7.40;99.90
20528;DHT22;23612;50.894;10.700;2023-04-15T15:06:49;7.50;99.90
20528;DHT22;23612;50.894;10.700;2023-04-15T15:09:15;7.50;99.90
20528;DHT22;23612;50.894;10.700;2023-04-15T15:11:40;7.50;99.90
20528;DHT22;23612;50.894;10.700;2023-04-15T15:14:06;7.50;99.90
20528;DHT22;23612;50.894;10.700;2023-04-15T15:16:31;7.60;99.90
20528;DHT22;23612;50.894;10.700;2023-04-15T15:18:57;7.50;99.90
20528;DHT22;23612;50.894;10.700;2023-04-15T15:21:22;7.50;99.90
20528;DHT22;23612;50.894;10.700;2023-04-15T15:23:48;7.50;99.90
20528;DHT22;23612;50.894;10.700;2023-04-15T15:26:13;7.40;99.90
20528;DHT22;23612;50.894;10.700;2023-04-15T15:28:39;7.50;99.90
20528;DHT22;23612;50.894;10.700;2023-04-15T15:31:06;7.50;99.90
20528;DHT22;23612;50.894;10.700;2023-04-15T15:33:31;7.50;99.90
20528;DHT22;23612;50.894;10.700;2023-04-15T15:35:57;7.50;99.90
20528;DHT22;23612;50.894;10.700;2023-04-15T15:38:23;7.60;99.90
20528;DHT22;23612;50.894;10.700;2023-04-15T15:40:49;7.60;99.90
20528;DHT22;23612;50.894;10.700;2023-04-15T15:43:14;7.50;99.90
20528;DHT22;23612;50.894;10.700;2023-04-15T15:45:40;7.50;99.90